createdAt,value
2019-05-19T00:00:39.145Z,12.58
2019-05-19T00:01:40.290Z,12.37
2019-05-19T00:02:41.008Z,12.36
2019-05-19T00:03:40.692Z,12.33
2019-05-19T00:04:40.816Z,12.38
2019-05-19T00:05:40.795Z,12.40
2019-05-19T00:06:40.096Z,12.34
2019-05-19T00:07:40.280Z,12.29
2019-05-19T00:08:40.426Z,12.33
2019-05-19T00:09:40.599Z,12.19
2019-05-19T00:10:40.740Z,12.33
2019-05-19T00:11:40.953Z,12.26
2019-05-19T00:12:41.180Z,12.30
2019-05-19T00:13:41.364Z,12.13
2019-05-19T00:14:41.502Z,12.18
2019-05-19T00:15:41.625Z,12.22
2019-05-19T00:16:41.771Z,12.08
2019-05-19T00:17:41.948Z,12.07
2019-05-19T00:18:42.098Z,12.11
2019-05-19T00:19:42.805Z,12.05
2019-05-19T00:20:42.427Z,11.97
2019-05-19T00:21:42.590Z,11.98
2019-05-19T00:22:42.793Z,12.01
2019-05-19T00:23:43.310Z,12.00
2019-05-19T00:24:43.093Z,12.01
2019-05-19T00:25:43.239Z,12.08
2019-05-19T00:26:43.387Z,12.08
2019-05-19T00:27:43.541Z,12.05
2019-05-19T00:28:43.757Z,12.12
2019-05-19T00:29:43.965Z,12.07
2019-05-19T00:30:44.121Z,12.07
2019-05-19T00:31:44.297Z,11.97
2019-05-19T00:32:44.487Z,11.98
2019-05-19T00:33:44.704Z,11.94
2019-05-19T00:34:44.884Z,11.96
2019-05-19T00:35:45.029Z,11.94
2019-05-19T00:36:45.232Z,12.00
2019-05-19T00:37:45.405Z,12.04
2019-05-19T00:38:45.591Z,12.05
2019-05-19T00:39:45.815Z,12.04
2019-05-19T00:40:46.000Z,11.98
2019-05-19T00:41:46.182Z,12.05
2019-05-19T00:42:46.372Z,12.03
2019-05-19T00:43:46.577Z,12.13
2019-05-19T00:44:46.750Z,12.03
2019-05-19T00:45:46.952Z,12.08
2019-05-19T00:46:47.151Z,12.01
2019-05-19T00:47:47.366Z,12.13
2019-05-19T00:48:47.611Z,11.94
2019-05-19T00:49:47.823Z,11.94
2019-05-19T00:50:48.028Z,11.93
2019-05-19T00:51:48.287Z,11.93
2019-05-19T00:52:48.474Z,11.84
2019-05-19T00:53:48.666Z,11.66
2019-05-19T00:54:48.854Z,11.60
2019-05-19T00:55:49.067Z,11.49
2019-05-19T00:56:49.270Z,12.08
2019-05-19T00:57:49.815Z,12.16
2019-05-19T00:58:50.304Z,12.11
2019-05-19T00:59:49.854Z,11.98
2019-05-19T01:00:50.020Z,11.90
2019-05-19T01:01:50.201Z,11.88
2019-05-19T01:02:50.374Z,11.75
2019-05-19T01:03:50.547Z,11.85
2019-05-19T01:04:50.733Z,11.75
2019-05-19T01:05:51.806Z,11.70
2019-05-19T01:06:51.155Z,11.67
2019-05-19T01:07:51.236Z,11.67
2019-05-19T01:08:51.333Z,11.62
2019-05-19T01:09:52.305Z,11.59
2019-05-19T01:10:51.727Z,11.60
2019-05-19T01:11:51.950Z,11.66
2019-05-19T01:12:52.138Z,11.56
2019-05-19T01:13:52.287Z,11.70
2019-05-19T01:14:52.438Z,11.53
2019-05-19T01:15:52.612Z,11.67
2019-05-19T01:16:52.762Z,11.49
2019-05-19T01:17:52.950Z,11.54
2019-05-19T01:18:53.106Z,11.44
2019-05-19T01:19:55.854Z,11.46
2019-05-19T01:20:54.403Z,11.45
2019-05-19T01:21:53.518Z,11.54
2019-05-19T01:22:53.706Z,11.36
2019-05-19T01:23:54.837Z,11.45
2019-05-19T01:24:54.008Z,11.51
2019-05-19T01:25:54.248Z,11.54
2019-05-19T01:26:54.412Z,11.64
2019-05-19T01:27:54.610Z,11.62
2019-05-19T01:28:54.798Z,11.54
2019-05-19T01:29:54.969Z,11.49
2019-05-19T01:30:55.174Z,11.60
2019-05-19T01:31:55.338Z,11.59
2019-05-19T01:32:55.510Z,11.64
2019-05-19T01:33:56.310Z,11.64
2019-05-19T01:34:55.873Z,11.77
2019-05-19T01:35:56.061Z,11.77
2019-05-19T01:36:56.331Z,11.82
2019-05-19T01:37:56.509Z,11.77
2019-05-19T01:38:56.685Z,11.77
2019-05-19T01:39:56.875Z,11.70
2019-05-19T01:40:57.086Z,11.74
2019-05-19T01:41:57.262Z,11.75
2019-05-19T01:42:57.460Z,11.62
2019-05-19T01:43:57.697Z,11.56
2019-05-19T01:44:57.860Z,11.57
2019-05-19T01:45:58.019Z,11.42
2019-05-19T01:46:58.195Z,11.46
2019-05-19T01:47:58.394Z,11.44
2019-05-19T01:48:58.557Z,11.46
2019-05-19T01:50:16.535Z,11.27
2019-05-19T01:51:00.967Z,11.39
2019-05-19T01:51:59.083Z,11.41
2019-05-19T01:52:59.284Z,11.33
2019-05-19T01:53:59.459Z,11.33
2019-05-19T01:54:59.610Z,11.28
2019-05-19T01:55:59.778Z,11.24
2019-05-19T01:56:59.941Z,11.27
2019-05-19T01:58:00.152Z,11.24
2019-05-19T01:59:00.331Z,11.28
2019-05-19T02:00:00.495Z,11.28
2019-05-19T02:01:00.652Z,11.20
2019-05-19T02:02:00.833Z,11.24
2019-05-19T02:03:01.029Z,11.31
2019-05-19T02:04:01.217Z,11.31
2019-05-19T02:05:01.395Z,11.27
2019-05-19T02:06:01.556Z,11.28
2019-05-19T02:07:01.747Z,11.30
2019-05-19T02:08:01.921Z,11.33
2019-05-19T02:09:02.087Z,11.33
2019-05-19T02:10:02.476Z,11.26
2019-05-19T02:11:02.401Z,11.26
2019-05-19T02:12:02.548Z,11.26
2019-05-19T02:13:05.107Z,11.11
2019-05-19T02:14:03.874Z,11.12
2019-05-19T02:15:02.995Z,11.17
2019-05-19T02:16:03.139Z,11.05
2019-05-19T02:17:03.283Z,11.08
2019-05-19T02:18:04.321Z,11.08
2019-05-19T02:19:03.607Z,11.08
2019-05-19T02:20:03.752Z,11.03
2019-05-19T02:21:03.903Z,11.08
2019-05-19T02:22:04.818Z,10.84
2019-05-19T02:23:04.197Z,10.93
2019-05-19T02:24:04.373Z,10.95
2019-05-19T02:25:04.555Z,10.91
2019-05-19T02:26:04.712Z,10.83
2019-05-19T02:27:04.836Z,10.78
2019-05-19T02:28:04.980Z,10.87
2019-05-19T02:29:05.159Z,10.83
2019-05-19T02:30:05.327Z,10.94
2019-05-19T02:31:05.481Z,10.98
2019-05-19T02:32:06.635Z,11.03
2019-05-19T02:33:05.860Z,11.05
2019-05-19T02:34:06.051Z,11.03
2019-05-19T02:35:06.249Z,11.08
2019-05-19T02:36:06.393Z,11.09
2019-05-19T02:37:06.573Z,11.05
2019-05-19T02:38:06.730Z,11.08
2019-05-19T02:39:06.893Z,10.99
2019-05-19T02:40:08.332Z,10.81
2019-05-19T02:41:07.212Z,10.75
2019-05-19T02:42:07.400Z,10.68
2019-05-19T02:43:07.570Z,10.69
2019-05-19T02:44:07.757Z,10.87
2019-05-19T02:45:07.901Z,10.87
2019-05-19T02:46:08.086Z,10.93
2019-05-19T02:47:08.832Z,10.87
2019-05-19T02:48:08.470Z,10.81
2019-05-19T02:49:08.636Z,10.94
2019-05-19T02:50:08.799Z,10.95
2019-05-19T02:51:08.988Z,10.86
2019-05-19T02:52:09.127Z,10.91
2019-05-19T02:53:09.267Z,10.91
2019-05-19T02:54:10.316Z,10.88
2019-05-19T02:55:09.604Z,10.83
2019-05-19T02:56:09.758Z,10.87
2019-05-19T02:57:09.907Z,10.73
2019-05-19T02:58:10.818Z,10.83
2019-05-19T02:59:10.207Z,10.65
2019-05-19T03:00:11.322Z,10.66
2019-05-19T03:01:10.583Z,10.69
2019-05-19T03:02:10.767Z,10.62
2019-05-19T03:03:10.927Z,10.57
2019-05-19T03:04:11.070Z,10.51
2019-05-19T03:05:12.203Z,10.44
2019-05-19T03:06:11.466Z,10.51
2019-05-19T03:07:11.650Z,10.55
2019-05-19T03:08:11.801Z,10.63
2019-05-19T03:09:11.969Z,10.55
2019-05-19T03:10:12.126Z,10.52
2019-05-19T03:11:12.278Z,10.52
2019-05-19T03:12:12.473Z,10.63
2019-05-19T03:13:12.616Z,10.68
2019-05-19T03:14:12.767Z,10.62
2019-05-19T03:15:13.821Z,10.51
2019-05-19T03:16:13.051Z,10.51
2019-05-19T03:17:14.263Z,10.55
2019-05-19T03:18:13.369Z,10.52
2019-05-19T03:19:14.332Z,10.58
2019-05-19T03:20:13.718Z,10.49
2019-05-19T03:21:13.869Z,10.47
2019-05-19T03:22:14.034Z,10.55
2019-05-19T03:23:14.173Z,10.52
2019-05-19T03:24:14.358Z,10.52
2019-05-19T03:25:14.504Z,10.60
2019-05-19T03:26:14.648Z,10.57
2019-05-19T03:27:14.830Z,10.66
2019-05-19T03:28:14.994Z,10.65
2019-05-19T03:29:15.152Z,10.66
2019-05-19T03:30:15.829Z,10.78
2019-05-19T03:31:15.474Z,10.87
2019-05-19T03:32:15.629Z,10.91
2019-05-19T03:33:15.864Z,10.99
2019-05-19T03:34:16.033Z,11.05
2019-05-19T03:35:16.160Z,11.01
2019-05-19T03:36:16.305Z,11.01
2019-05-19T03:37:16.442Z,11.02
2019-05-19T03:38:16.627Z,11.09
2019-05-19T03:39:16.788Z,11.03
2019-05-19T03:40:17.826Z,11.02
2019-05-19T03:41:17.121Z,11.02
2019-05-19T03:42:17.309Z,10.99
2019-05-19T03:43:17.468Z,10.95
2019-05-19T03:44:17.837Z,10.87
2019-05-19T03:45:18.762Z,10.83
2019-05-19T03:46:17.906Z,10.76
2019-05-19T03:47:18.064Z,10.78
2019-05-19T03:48:18.233Z,10.80
2019-05-19T03:49:18.401Z,10.78
2019-05-19T03:50:18.575Z,10.72
2019-05-19T03:51:30.041Z,10.80
2019-05-19T03:52:19.976Z,10.70
2019-05-19T03:53:19.143Z,10.68
2019-05-19T03:54:19.307Z,10.76
2019-05-19T03:55:19.445Z,11.05
2019-05-19T03:56:19.589Z,11.59
2019-05-19T03:57:19.741Z,11.77
2019-05-19T03:58:20.073Z,11.49
2019-05-19T03:59:19.993Z,11.30
2019-05-19T04:00:20.135Z,11.09
2019-05-19T04:01:20.277Z,11.02
2019-05-19T04:02:20.396Z,10.76
2019-05-19T04:03:21.560Z,10.76
2019-05-19T04:04:20.778Z,10.75
2019-05-19T04:05:20.917Z,10.83
2019-05-19T04:06:21.076Z,10.88
2019-05-19T04:07:21.266Z,10.84
2019-05-19T04:08:21.404Z,10.84
2019-05-19T04:09:21.674Z,10.83
2019-05-19T04:10:21.822Z,10.84
2019-05-19T04:11:21.960Z,10.88
2019-05-19T04:12:22.212Z,10.94
2019-05-19T04:13:22.337Z,10.88
2019-05-19T04:14:22.486Z,10.83
2019-05-19T04:15:22.674Z,10.88
2019-05-19T04:16:22.795Z,11.05
2019-05-19T04:17:23.055Z,10.94
2019-05-19T04:18:23.197Z,11.01
2019-05-19T04:19:23.371Z,11.05
2019-05-19T04:20:23.858Z,11.16
2019-05-19T04:21:23.742Z,11.23
2019-05-19T04:22:23.906Z,11.23
2019-05-19T04:23:24.067Z,11.36
2019-05-19T04:24:24.824Z,11.33
2019-05-19T04:25:24.489Z,11.36
2019-05-19T04:26:24.658Z,11.31
2019-05-19T04:27:25.335Z,11.36
2019-05-19T04:28:25.823Z,11.49
2019-05-19T04:29:25.101Z,11.60
2019-05-19T04:30:25.291Z,11.62
2019-05-19T04:31:25.472Z,11.78
2019-05-19T04:32:26.328Z,11.90
2019-05-19T04:33:25.852Z,11.97
2019-05-19T04:34:26.021Z,12.07
2019-05-19T04:35:26.199Z,12.05
2019-05-19T04:36:28.334Z,12.16
2019-05-19T04:37:26.586Z,12.19
2019-05-19T04:38:26.763Z,12.21
2019-05-19T04:39:26.942Z,12.26
2019-05-19T04:40:27.340Z,12.26
2019-05-19T04:41:27.244Z,12.23
2019-05-19T04:42:27.431Z,12.29
2019-05-19T04:43:27.593Z,12.55
2019-05-19T04:44:27.768Z,12.67
2019-05-19T04:45:28.017Z,12.79
2019-05-19T04:46:28.208Z,12.91
2019-05-19T04:47:28.386Z,13.10
2019-05-19T04:48:28.554Z,13.38
2019-05-19T04:49:28.751Z,13.54
2019-05-19T04:50:28.930Z,13.83
2019-05-19T04:51:29.168Z,13.84
2019-05-19T04:52:29.282Z,14.09
2019-05-19T04:53:29.432Z,14.26
2019-05-19T04:54:29.574Z,14.41
2019-05-19T04:55:29.746Z,14.48
2019-05-19T04:56:29.870Z,14.72
2019-05-19T04:57:30.016Z,14.97
2019-05-19T04:58:30.156Z,15.13
2019-05-19T04:59:30.282Z,15.35
2019-05-19T05:00:30.453Z,15.44
2019-05-19T05:01:30.587Z,15.60
2019-05-19T05:02:30.757Z,15.73
2019-05-19T05:03:30.896Z,15.77
2019-05-19T05:04:32.020Z,15.80
2019-05-19T05:05:31.243Z,15.98
2019-05-19T05:06:31.391Z,16.14
2019-05-19T05:07:31.589Z,16.27
2019-05-19T05:08:31.747Z,16.41
2019-05-19T05:09:32.845Z,16.25
2019-05-19T05:10:32.091Z,16.18
2019-05-19T05:11:32.253Z,16.08
2019-05-19T05:12:32.430Z,16.13
2019-05-19T05:13:32.846Z,16.17
2019-05-19T05:14:33.342Z,16.29
2019-05-19T05:15:33.011Z,16.47
2019-05-19T05:16:33.162Z,16.50
2019-05-19T05:17:33.463Z,16.52
2019-05-19T05:18:33.646Z,16.51
2019-05-19T05:19:33.790Z,16.45
2019-05-19T05:20:33.927Z,16.22
2019-05-19T05:21:34.840Z,16.23
2019-05-19T05:22:34.212Z,16.13
2019-05-19T05:23:34.349Z,16.11
2019-05-19T05:24:35.341Z,15.93
2019-05-19T05:25:34.686Z,15.89
2019-05-19T05:26:35.839Z,15.68
2019-05-19T05:27:35.072Z,15.44
2019-05-19T05:28:35.229Z,15.18
2019-05-19T05:29:35.366Z,14.86
2019-05-19T05:30:35.497Z,14.91
2019-05-19T05:31:35.634Z,14.67
2019-05-19T05:32:35.766Z,14.57
2019-05-19T05:33:35.954Z,14.54
2019-05-19T05:34:36.109Z,14.48
2019-05-19T05:35:36.268Z,14.30
2019-05-19T05:36:36.401Z,14.21
2019-05-19T05:37:36.596Z,14.26
2019-05-19T05:38:36.789Z,14.13
2019-05-19T05:39:36.982Z,14.17
2019-05-19T05:40:37.136Z,14.16
2019-05-19T05:41:37.279Z,14.13
2019-05-19T05:42:37.462Z,14.12
2019-05-19T05:43:37.621Z,14.08
2019-05-19T05:44:37.827Z,14.23
2019-05-19T05:45:37.994Z,14.16
2019-05-19T05:46:38.144Z,14.23
2019-05-19T05:47:38.360Z,14.20
2019-05-19T05:48:53.243Z,14.13
2019-05-19T05:49:38.733Z,14.27
2019-05-19T05:50:38.947Z,14.31
2019-05-19T05:51:39.119Z,14.57
2019-05-19T05:52:39.359Z,14.85
2019-05-19T05:53:39.551Z,15.03
2019-05-19T05:54:39.750Z,15.16
2019-05-19T05:55:40.351Z,15.41
2019-05-19T05:56:40.027Z,15.56
2019-05-19T05:57:40.240Z,15.92
2019-05-19T05:58:40.457Z,16.17
2019-05-19T05:59:40.641Z,16.41
2019-05-19T06:00:40.877Z,16.59
2019-05-19T06:01:41.048Z,16.92
2019-05-19T06:02:41.323Z,17.02
2019-05-19T06:03:41.371Z,17.21
2019-05-19T06:04:41.592Z,17.49
2019-05-19T06:05:41.738Z,17.57
2019-05-19T06:06:41.893Z,17.68
2019-05-19T06:07:42.048Z,17.92
2019-05-19T06:08:42.194Z,18.09
2019-05-19T06:09:42.393Z,18.26
2019-05-19T06:10:42.558Z,18.28
2019-05-19T06:11:42.718Z,18.39
2019-05-19T06:12:42.900Z,18.46
2019-05-19T06:13:43.113Z,18.57
2019-05-19T06:14:43.322Z,18.74
2019-05-19T06:15:43.523Z,18.83
2019-05-19T06:16:43.710Z,19.07
2019-05-19T06:17:43.885Z,19.10
2019-05-19T06:18:44.094Z,19.06
2019-05-19T06:19:44.264Z,19.24
2019-05-19T06:20:44.441Z,19.21
2019-05-19T06:21:44.610Z,19.32
2019-05-19T06:22:55.666Z,19.46
2019-05-19T06:23:46.953Z,19.57
2019-05-19T06:24:45.076Z,19.65
2019-05-19T06:25:45.277Z,19.67
2019-05-19T06:26:45.462Z,19.68
2019-05-19T06:27:45.647Z,19.90
2019-05-19T06:28:45.837Z,19.95
2019-05-19T06:29:46.020Z,20.08
2019-05-19T06:30:46.272Z,20.20
2019-05-19T06:31:46.345Z,20.38
2019-05-19T06:32:46.551Z,20.51
2019-05-19T06:33:46.711Z,20.54
2019-05-19T06:34:46.920Z,20.56
2019-05-19T06:35:47.115Z,20.46
2019-05-19T06:36:47.307Z,20.33
2019-05-19T06:37:47.474Z,20.42
2019-05-19T06:38:47.729Z,20.53
2019-05-19T06:39:47.810Z,20.73
2019-05-19T06:40:48.869Z,20.66
2019-05-19T06:41:48.175Z,20.85
2019-05-19T06:42:48.357Z,20.96
2019-05-19T06:43:49.369Z,21.05
2019-05-19T06:44:49.370Z,21.16
2019-05-19T06:45:48.878Z,21.43
2019-05-19T06:46:49.079Z,21.55
2019-05-19T06:47:49.214Z,21.33
2019-05-19T06:48:49.368Z,21.13
2019-05-19T06:49:49.505Z,20.97
2019-05-19T06:50:50.363Z,20.75
2019-05-19T06:51:49.904Z,20.42
2019-05-19T06:52:50.057Z,20.26
2019-05-19T06:53:50.246Z,20.04
2019-05-19T06:54:50.395Z,19.67
2019-05-19T06:55:50.566Z,19.72
2019-05-19T06:56:50.883Z,19.71
2019-05-19T06:57:50.951Z,19.75
2019-05-19T06:58:51.117Z,19.70
2019-05-19T06:59:51.298Z,19.90
2019-05-19T07:00:52.385Z,19.92
2019-05-19T07:01:51.677Z,20.00
2019-05-19T07:02:51.855Z,20.10
2019-05-19T07:03:52.005Z,20.35
2019-05-19T07:04:52.871Z,20.51
2019-05-19T07:05:52.384Z,20.78
2019-05-19T07:06:52.891Z,21.15
2019-05-19T07:07:52.769Z,21.48
2019-05-19T07:08:52.957Z,21.79
2019-05-19T07:09:58.584Z,21.85
2019-05-19T07:10:55.255Z,21.91
2019-05-19T07:11:53.491Z,21.68
2019-05-19T07:12:53.683Z,21.56
2019-05-19T07:13:53.874Z,21.79
2019-05-19T07:14:54.056Z,21.89
2019-05-19T07:15:54.261Z,21.85
2019-05-19T07:16:54.412Z,21.74
2019-05-19T07:17:54.577Z,22.02
2019-05-19T07:18:54.754Z,21.75
2019-05-19T07:19:54.900Z,21.64
2019-05-19T07:20:55.051Z,21.36
2019-05-19T07:21:55.208Z,21.81
2019-05-19T07:22:55.880Z,22.15
2019-05-19T07:23:55.528Z,22.30
2019-05-19T07:24:55.693Z,21.89
2019-05-19T07:25:55.849Z,21.53
2019-05-19T07:26:56.007Z,21.79
2019-05-19T07:27:56.187Z,22.29
2019-05-19T07:28:58.943Z,22.76
2019-05-19T07:29:56.560Z,22.79
2019-05-19T07:30:56.749Z,23.07
2019-05-19T07:31:56.944Z,22.81
2019-05-19T07:32:57.103Z,22.82
2019-05-19T07:33:57.271Z,23.15
2019-05-19T07:34:57.898Z,23.29
2019-05-19T07:35:57.561Z,23.42
2019-05-19T07:36:57.734Z,23.22
2019-05-19T07:37:57.894Z,22.52
2019-05-19T07:38:58.052Z,21.90
2019-05-19T07:39:59.256Z,21.75
2019-05-19T07:40:58.389Z,22.02
2019-05-19T07:41:58.542Z,22.30
2019-05-19T07:42:58.714Z,22.39
2019-05-19T07:43:58.884Z,22.45
2019-05-19T07:44:59.073Z,22.46
2019-05-19T07:45:59.209Z,22.64
2019-05-19T07:46:59.386Z,22.82
2019-05-19T07:48:00.395Z,23.06
2019-05-19T07:48:59.770Z,23.31
2019-05-19T07:49:59.991Z,23.75
2019-05-19T07:51:00.151Z,24.36
2019-05-19T07:52:00.320Z,24.86
2019-05-19T07:53:00.483Z,25.24
2019-05-19T07:54:00.651Z,25.27
2019-05-19T07:55:00.823Z,24.77
2019-05-19T07:56:01.013Z,24.15
2019-05-19T07:57:01.168Z,23.84
2019-05-19T07:58:01.312Z,24.49
2019-05-19T07:59:01.455Z,24.86
2019-05-19T08:00:01.584Z,24.84
2019-05-19T08:01:01.761Z,24.29
2019-05-19T08:02:01.910Z,24.29
2019-05-19T08:03:02.071Z,24.42
2019-05-19T08:04:02.897Z,24.00
2019-05-19T08:05:02.406Z,23.44
2019-05-19T08:06:02.842Z,23.50
2019-05-19T08:07:02.805Z,23.57
2019-05-19T08:08:02.944Z,23.93
2019-05-19T08:09:03.087Z,24.51
2019-05-19T08:10:03.891Z,24.84
2019-05-19T08:11:03.420Z,25.02
2019-05-19T08:12:03.918Z,25.01
2019-05-19T08:13:03.764Z,24.59
2019-05-19T08:14:03.940Z,23.81
2019-05-19T08:15:05.901Z,24.16
2019-05-19T08:16:04.268Z,24.70
2019-05-19T08:17:04.438Z,24.99
2019-05-19T08:18:04.602Z,25.17
2019-05-19T08:19:05.399Z,24.84
2019-05-19T08:20:04.908Z,24.18
2019-05-19T08:21:05.068Z,23.77
2019-05-19T08:22:05.286Z,23.53
2019-05-19T08:23:05.447Z,23.86
2019-05-19T08:24:05.619Z,24.44
2019-05-19T08:25:05.813Z,24.53
2019-05-19T08:26:06.904Z,24.21
2019-05-19T08:27:06.211Z,23.79
2019-05-19T08:28:09.037Z,24.02
2019-05-19T08:29:07.504Z,24.51
2019-05-19T08:30:07.417Z,23.39
2019-05-19T08:31:06.810Z,23.78
2019-05-19T08:32:07.010Z,23.74
2019-05-19T08:33:07.173Z,23.67
2019-05-19T08:34:07.563Z,23.41
2019-05-19T08:35:08.422Z,23.34
2019-05-19T08:36:07.709Z,23.49
2019-05-19T08:37:07.870Z,23.03
2019-05-19T08:38:08.914Z,22.61
2019-05-19T08:39:09.167Z,22.46
2019-05-19T08:40:08.926Z,22.46
2019-05-19T08:41:08.485Z,22.97
2019-05-19T08:42:08.641Z,23.52
2019-05-19T08:43:08.782Z,23.52
2019-05-19T08:44:08.940Z,23.59
2019-05-19T08:45:09.087Z,23.94
2019-05-19T08:46:09.273Z,23.78
2019-05-19T08:47:10.410Z,23.56
2019-05-19T08:48:09.698Z,23.39
2019-05-19T08:49:09.856Z,23.75
2019-05-19T08:50:10.056Z,24.06
2019-05-19T08:51:10.238Z,24.11
2019-05-19T08:52:10.436Z,24.05
2019-05-19T08:53:10.636Z,24.00
2019-05-19T08:54:14.894Z,23.75
2019-05-19T08:55:12.980Z,23.09
2019-05-19T08:56:11.210Z,22.44
2019-05-19T08:57:11.919Z,22.12
2019-05-19T08:58:11.571Z,21.79
2019-05-19T08:59:11.789Z,21.67
2019-05-19T09:00:11.941Z,21.64
2019-05-19T09:01:12.116Z,21.83
2019-05-19T09:02:12.334Z,22.09
2019-05-19T09:03:12.503Z,21.86
2019-05-19T09:04:12.934Z,21.67
2019-05-19T09:05:12.839Z,22.02
2019-05-19T09:06:31.932Z,22.08
2019-05-19T09:07:13.206Z,22.06
2019-05-19T09:08:13.378Z,22.06
2019-05-19T09:09:13.567Z,22.02
2019-05-19T09:10:13.723Z,21.79
2019-05-19T09:11:13.889Z,21.82
2019-05-19T09:12:14.057Z,21.67
2019-05-19T09:13:14.251Z,21.77
2019-05-19T09:14:14.438Z,21.85
2019-05-19T09:15:14.594Z,21.94
2019-05-19T09:16:15.419Z,21.94
2019-05-19T09:17:14.976Z,21.98
2019-05-19T09:18:15.177Z,22.78
2019-05-19T09:19:15.402Z,23.52
2019-05-19T09:20:15.595Z,24.02
2019-05-19T09:21:15.776Z,24.33
2019-05-19T09:22:15.938Z,24.56
2019-05-19T09:23:16.133Z,24.55
2019-05-19T09:24:29.654Z,24.05
2019-05-19T09:25:18.467Z,23.22
2019-05-19T09:26:16.605Z,22.72
2019-05-19T09:27:17.500Z,22.56
2019-05-19T09:28:17.935Z,22.39
2019-05-19T09:29:17.227Z,21.77
2019-05-19T09:30:17.436Z,21.21
2019-05-19T09:31:17.613Z,20.68
2019-05-19T09:32:17.788Z,20.48
2019-05-19T09:33:18.926Z,20.53
2019-05-19T09:34:18.190Z,20.38
2019-05-19T09:35:18.401Z,20.50
2019-05-19T09:36:18.579Z,20.64
2019-05-19T09:37:18.763Z,20.83
2019-05-19T09:38:18.897Z,20.66
2019-05-19T09:39:20.063Z,20.48
2019-05-19T09:40:19.932Z,20.38
2019-05-19T09:41:19.429Z,20.41
2019-05-19T09:42:19.658Z,20.58
2019-05-19T09:43:20.431Z,20.82
2019-05-19T09:44:19.911Z,20.69
2019-05-19T09:45:20.156Z,20.61
2019-05-19T09:46:20.455Z,20.85
2019-05-19T09:47:20.439Z,20.85
2019-05-19T09:48:20.600Z,20.91
2019-05-19T09:49:20.710Z,20.85
2019-05-19T09:50:20.831Z,20.79
2019-05-19T09:51:20.972Z,21.00
2019-05-19T09:52:21.109Z,21.06
2019-05-19T09:53:21.228Z,21.16
2019-05-19T09:54:21.370Z,21.37
2019-05-19T09:55:22.482Z,21.18
2019-05-19T09:56:21.950Z,21.15
2019-05-19T09:57:21.885Z,21.01
2019-05-19T09:58:22.053Z,20.83
2019-05-19T09:59:22.944Z,20.85
2019-05-19T10:00:22.346Z,21.03
2019-05-19T10:01:22.555Z,21.42
2019-05-19T10:02:22.772Z,21.55
2019-05-19T10:03:22.965Z,21.79
2019-05-19T10:04:23.937Z,22.35
2019-05-19T10:05:23.353Z,23.04
2019-05-19T10:06:23.507Z,23.64
2019-05-19T10:07:23.708Z,23.87
2019-05-19T10:08:23.878Z,23.89
2019-05-19T10:09:24.040Z,24.45
2019-05-19T10:10:24.955Z,25.08
2019-05-19T10:11:24.331Z,25.57
2019-05-19T10:12:24.549Z,25.78
2019-05-19T10:13:24.728Z,25.07
2019-05-19T10:14:24.888Z,24.46
2019-05-19T10:15:25.040Z,24.27
2019-05-19T10:16:25.952Z,24.70
2019-05-19T10:17:25.345Z,24.97
2019-05-19T10:18:25.478Z,25.11
2019-05-19T10:19:25.710Z,25.23
2019-05-19T10:20:25.863Z,25.44
2019-05-19T10:21:26.009Z,25.64
2019-05-19T10:22:26.460Z,25.63
2019-05-19T10:23:26.372Z,25.93
2019-05-19T10:24:27.468Z,26.12
2019-05-19T10:25:26.723Z,26.20
2019-05-19T10:26:26.869Z,26.17
2019-05-19T10:27:27.956Z,26.42
2019-05-19T10:28:27.191Z,26.03
2019-05-19T10:29:27.387Z,25.78
2019-05-19T10:30:27.487Z,25.04
2019-05-19T10:31:27.665Z,23.99
2019-05-19T10:32:28.461Z,23.39
2019-05-19T10:33:28.010Z,23.09
2019-05-19T10:34:28.150Z,23.37
2019-05-19T10:35:28.287Z,23.38
2019-05-19T10:36:28.413Z,23.22
2019-05-19T10:37:29.575Z,23.25
2019-05-19T10:38:28.724Z,23.18
2019-05-19T10:39:28.869Z,23.01
2019-05-19T10:40:29.082Z,23.11
2019-05-19T10:41:29.233Z,23.00
2019-05-19T10:42:29.398Z,23.25
2019-05-19T10:43:29.964Z,23.00
2019-05-19T10:44:29.768Z,22.76
2019-05-19T10:45:29.897Z,22.61
2019-05-19T10:46:30.043Z,22.36
2019-05-19T10:47:30.228Z,22.38
2019-05-19T10:48:30.371Z,22.30
2019-05-19T10:49:30.526Z,22.14
2019-05-19T10:50:30.662Z,22.17
2019-05-19T10:51:30.806Z,22.61
2019-05-19T10:52:30.939Z,23.09
2019-05-19T10:53:31.209Z,23.62
2019-05-19T10:54:31.345Z,24.12
2019-05-19T10:55:36.470Z,24.59
2019-05-19T10:56:34.466Z,24.93
2019-05-19T10:57:31.895Z,25.36
2019-05-19T10:58:32.181Z,25.61
2019-05-19T10:59:32.288Z,25.66
2019-05-19T11:00:32.436Z,25.57
2019-05-19T11:01:32.562Z,25.74
2019-05-19T11:02:32.711Z,25.30
2019-05-19T11:03:32.917Z,25.07
2019-05-19T11:04:33.072Z,24.80
2019-05-19T11:05:33.479Z,24.56
2019-05-19T11:06:33.368Z,24.45
2019-05-19T11:07:33.524Z,23.97
2019-05-19T11:08:34.464Z,23.94
2019-05-19T11:09:33.853Z,23.57
2019-05-19T11:10:34.035Z,22.63
2019-05-19T11:11:34.964Z,22.29
2019-05-19T11:12:34.963Z,21.86
2019-05-19T11:13:34.611Z,21.90
2019-05-19T11:14:34.751Z,22.29
2019-05-19T11:15:34.907Z,22.67
2019-05-19T11:16:35.087Z,23.09
2019-05-19T11:17:35.245Z,23.16
2019-05-19T11:18:35.424Z,23.44
2019-05-19T11:19:35.578Z,23.37
2019-05-19T11:20:35.761Z,23.45
2019-05-19T11:21:35.852Z,23.59
2019-05-19T11:22:36.009Z,22.72
2019-05-19T11:23:36.172Z,22.21
2019-05-19T11:24:36.337Z,21.96
2019-05-19T11:25:50.428Z,21.90
2019-05-19T11:26:37.639Z,21.46
2019-05-19T11:27:36.766Z,21.21
2019-05-19T11:28:36.913Z,21.24
2019-05-19T11:29:37.971Z,21.12
2019-05-19T11:30:37.217Z,21.15
2019-05-19T11:31:37.415Z,21.18
2019-05-19T11:32:38.472Z,21.13
2019-05-19T11:33:37.720Z,21.12
2019-05-19T11:34:37.866Z,21.36
2019-05-19T11:35:38.005Z,21.40
2019-05-19T11:36:38.142Z,21.56
2019-05-19T11:37:38.319Z,21.48
2019-05-19T11:38:39.004Z,21.24
2019-05-19T11:39:38.637Z,21.24
2019-05-19T11:40:38.787Z,21.42
2019-05-19T11:41:39.479Z,21.27
2019-05-19T11:42:39.149Z,21.24
2019-05-19T11:43:39.334Z,21.31
2019-05-19T11:44:39.492Z,21.31
2019-05-19T11:45:39.658Z,21.22
2019-05-19T11:46:39.813Z,21.33
2019-05-19T11:47:40.016Z,21.46
2019-05-19T11:48:40.175Z,21.61
2019-05-19T11:49:40.356Z,21.42
2019-05-19T11:50:42.180Z,21.38
2019-05-19T11:51:41.764Z,21.33
2019-05-19T11:52:41.031Z,21.33
2019-05-19T11:53:41.186Z,21.19
2019-05-19T11:54:41.405Z,20.93
2019-05-19T11:55:41.604Z,20.87
2019-05-19T11:56:41.763Z,20.93
2019-05-19T11:57:41.920Z,20.87
2019-05-19T11:58:42.097Z,20.72
2019-05-19T11:59:42.239Z,20.75
2019-05-19T12:00:42.380Z,20.69
2019-05-19T12:01:43.483Z,20.56
2019-05-19T12:02:42.756Z,20.41
2019-05-19T12:03:42.945Z,20.35
2019-05-19T12:04:43.999Z,20.31
2019-05-19T12:05:43.199Z,20.19
2019-05-19T12:06:43.335Z,20.17
2019-05-19T12:07:43.477Z,20.15
2019-05-19T12:08:43.651Z,20.15
2019-05-19T12:09:44.484Z,20.04
2019-05-19T12:10:44.482Z,19.89
2019-05-19T12:11:45.039Z,19.79
2019-05-19T12:12:44.274Z,19.92
2019-05-19T12:13:44.431Z,19.83
2019-05-19T12:14:44.579Z,19.79
2019-05-19T12:15:45.494Z,19.65
2019-05-19T12:16:44.925Z,19.70
2019-05-19T12:17:45.078Z,19.68
2019-05-19T12:18:45.256Z,19.65
2019-05-19T12:19:45.981Z,19.45
2019-05-19T12:20:45.576Z,19.16
2019-05-19T12:21:45.732Z,18.65
2019-05-19T12:22:45.884Z,18.05
2019-05-19T12:23:46.067Z,17.57
2019-05-19T12:24:46.256Z,17.03
2019-05-19T12:25:46.426Z,16.63
2019-05-19T12:26:47.507Z,16.40
2019-05-19T12:27:47.677Z,16.18
2019-05-19T12:28:47.969Z,16.07
2019-05-19T12:29:47.062Z,16.22
2019-05-19T12:30:47.237Z,16.22
2019-05-19T12:31:47.383Z,16.29
2019-05-19T12:32:47.512Z,16.01
2019-05-19T12:33:51.822Z,15.96
2019-05-19T12:34:48.817Z,15.98
2019-05-19T12:35:47.968Z,15.93
2019-05-19T12:36:48.134Z,15.85
2019-05-19T12:37:48.308Z,15.85
2019-05-19T12:38:48.473Z,15.95
2019-05-19T12:39:48.636Z,16.26
2019-05-19T12:40:48.815Z,16.04
2019-05-19T12:41:49.512Z,16.32
2019-05-19T12:42:49.533Z,16.65
2019-05-19T12:43:49.305Z,16.73
2019-05-19T12:44:49.995Z,17.00
2019-05-19T12:45:50.050Z,17.00
2019-05-19T12:46:50.506Z,17.10
2019-05-19T12:47:50.519Z,17.22
2019-05-19T12:48:50.997Z,17.46
2019-05-19T12:49:51.009Z,17.65
2019-05-19T12:50:50.513Z,17.55
2019-05-19T12:51:51.499Z,17.42
2019-05-19T12:52:50.856Z,17.53
2019-05-19T12:53:51.012Z,17.51
2019-05-19T12:54:51.176Z,17.57